Time;durP1;ratioP1;P1;durP2;ratioP2;P2;SDS_P1;SDS_P2;PMS_P1;PMS_P2;Temp;Humidity;BMP_temperature;BMP_pressure;BME280_temperature;BME280_humidity;BME280_pressure;Samples;Min_cycle;Max_cycle;Signal;HPM_P1;HPM_P2
2023/08/03 00:02:25;;;;;;;21.17;18.88;;;18.60;99.90;;;;;;5030621;28;20033;-73
2023/08/03 00:04:51;;;;;;;28.08;25.35;;;18.60;99.90;;;;;;5032870;28;20029;-73
2023/08/03 00:07:17;;;;;;;45.55;41.65;;;18.60;99.90;;;;;;5032190;28;20045;-74
2023/08/03 00:09:46;;;;;;;54.85;50.60;;;18.60;99.90;;;;;;5031720;28;20040;-74
2023/08/03 00:12:12;;;;;;;74.18;68.75;;;18.60;99.90;;;;;;5032081;28;20463;-73
2023/08/03 00:14:38;;;;;;;54.85;50.22;;;18.60;99.90;;;;;;5032600;28;20037;-73
2023/08/03 00:17:04;;;;;;;43.67;40.08;;;18.50;99.90;;;;;;5031833;28;20152;-73
2023/08/03 00:19:30;;;;;;;22.90;19.75;;;18.50;99.90;;;;;;5032629;28;20505;-73
2023/08/03 00:21:56;;;;;;;46.70;43.25;;;18.40;99.90;;;;;;5031061;28;20034;-74
2023/08/03 00:24:24;;;;;;;53.05;49.15;;;18.40;99.90;;;;;;5032863;28;20056;-73
2023/08/03 00:26:50;;;;;;;31.77;29.10;;;18.50;99.90;;;;;;5031856;28;20044;-73
2023/08/03 00:29:16;;;;;;;77.22;72.20;;;18.50;99.90;;;;;;5031306;28;20029;-73
2023/08/03 00:31:42;;;;;;;52.63;48.60;;;18.50;99.90;;;;;;5031551;28;20041;-74
2023/08/03 00:34:08;;;;;;;35.92;33.17;;;18.50;99.90;;;;;;5032066;28;20021;-73
2023/08/03 00:36:35;;;;;;;32.05;29.20;;;18.40;99.90;;;;;;5032090;28;20033;-74
2023/08/03 00:39:01;;;;;;;33.67;30.88;;;18.40;99.90;;;;;;5030847;28;20056;-74
2023/08/03 00:41:27;;;;;;;23.30;20.95;;;18.40;99.90;;;;;;5031743;28;20029;-74
2023/08/03 00:43:53;;;;;;;30.40;27.58;;;18.40;99.90;;;;;;5031206;28;20026;-74
2023/08/03 00:46:19;;;;;;;30.98;28.15;;;18.40;99.90;;;;;;5030139;28;20430;-73
2023/08/03 00:48:45;;;;;;;30.48;27.67;;;18.40;99.90;;;;;;5032071;28;20033;-74
2023/08/03 00:51:12;;;;;;;29.33;26.83;;;18.30;99.90;;;;;;5031853;28;20054;-73
2023/08/03 00:53:38;;;;;;;32.67;29.58;;;18.30;99.90;;;;;;5030985;28;20022;-73
2023/08/03 00:56:04;;;;;;;35.47;32.22;;;18.20;99.90;;;;;;5013859;28;20048;-73
2023/08/03 00:58:30;;;;;;;35.97;32.78;;;18.20;99.90;;;;;;5030909;28;20030;-73
2023/08/03 01:00:56;;;;;;;57.55;53.55;;;18.20;99.90;;;;;;5029668;28;20034;-73
2023/08/03 01:03:22;;;;;;;46.17;42.03;;;18.30;99.90;;;;;;5031054;28;20030;-73
2023/08/03 01:05:48;;;;;;;53.28;49.40;;;18.20;99.90;;;;;;5031749;28;20040;-74
2023/08/03 01:08:14;;;;;;;34.75;31.50;;;18.20;99.90;;;;;;5032023;28;20048;-74
2023/08/03 01:10:40;;;;;;;33.38;30.05;;;18.20;99.90;;;;;;5031373;28;20033;-73
2023/08/03 01:13:06;;;;;;;27.48;24.63;;;18.20;99.90;;;;;;5030833;28;20033;-73
2023/08/03 01:15:32;;;;;;;23.27;18.70;;;18.20;99.90;;;;;;5031280;28;20037;-74
2023/08/03 01:17:58;;;;;;;29.05;16.92;;;18.20;99.90;;;;;;5030490;28;20044;-73
2023/08/03 01:20:24;;;;;;;21.70;15.95;;;18.20;99.90;;;;;;5030519;28;20030;-74
2023/08/03 01:22:51;;;;;;;25.90;15.98;;;18.20;99.90;;;;;;5030846;28;20037;-73
2023/08/03 01:25:17;;;;;;;20.58;14.85;;;18.20;99.90;;;;;;5029916;28;20037;-73
2023/08/03 01:27:47;;;;;;;26.73;14.98;;;18.20;99.90;;;;;;5031845;28;20029;-73
2023/08/03 01:30:13;;;;;;;24.27;14.10;;;18.20;99.90;;;;;;5031156;28;20459;-73
2023/08/03 01:32:39;;;;;;;22.13;14.27;;;18.20;99.90;;;;;;5030774;28;20029;-73
2023/08/03 01:35:06;;;;;;;24.58;15.65;;;18.20;99.90;;;;;;5030142;28;20474;-73
2023/08/03 01:37:34;;;;;;;22.13;16.85;;;18.20;99.90;;;;;;5030222;28;20040;-73
2023/08/03 01:40:02;;;;;;;30.13;17.52;;;18.20;99.90;;;;;;5030227;28;20514;-74
2023/08/03 01:42:28;;;;;;;27.65;16.58;;;18.20;99.90;;;;;;5031337;28;20030;-74
2023/08/03 01:44:54;;;;;;;33.08;22.50;;;18.20;99.90;;;;;;5030725;28;20037;-73
2023/08/03 01:47:20;;;;;;;29.98;25.05;;;18.40;99.90;;;;;;5034042;28;20087;-74
2023/08/03 01:49:46;;;;;;;32.63;26.23;;;18.30;99.90;;;;;;5033833;28;20021;-73
2023/08/03 01:52:12;;;;;;;30.30;22.35;;;18.30;99.90;;;;;;5033588;28;20406;-70
2023/08/03 01:54:38;;;;;;;30.90;27.23;;;18.30;99.90;;;;;;5035273;28;20041;-73
2023/08/03 01:57:05;;;;;;;25.67;22.50;;;18.20;99.90;;;;;;5034452;28;20398;-73
2023/08/03 01:59:31;;;;;;;29.25;25.85;;;18.30;99.90;;;;;;5032551;28;20471;-74
2023/08/03 02:01:57;;;;;;;29.77;26.52;;;18.30;99.90;;;;;;5029183;28;20074;-74
2023/08/03 02:04:23;;;;;;;30.95;24.00;;;18.30;99.90;;;;;;5030459;28;20418;-73
2023/08/03 02:06:51;;;;;;;24.80;22.38;;;18.30;99.90;;;;;;5032857;28;20045;-73
2023/08/03 02:09:17;;;;;;;26.02;19.17;;;18.40;99.90;;;;;;5032437;28;20025;-73
2023/08/03 02:11:43;;;;;;;25.30;16.80;;;18.40;99.90;;;;;;5033317;28;20037;-73
2023/08/03 02:14:09;;;;;;;22.80;15.45;;;18.40;99.90;;;;;;5033683;28;20385;-73
2023/08/03 02:16:35;;;;;;;33.95;18.48;;;18.30;99.90;;;;;;5032983;28;20443;-73
2023/08/03 02:19:01;;;;;;;26.27;17.08;;;18.20;99.90;;;;;;5033886;28;20056;-72
2023/08/03 02:21:28;;;;;;;27.63;15.30;;;18.20;99.90;;;;;;5031606;28;20045;-73
2023/08/03 02:23:54;;;;;;;26.48;15.93;;;18.20;99.90;;;;;;5034161;28;20037;-74
2023/08/03 02:26:20;;;;;;;22.98;15.20;;;18.20;99.90;;;;;;5015269;28;20053;-73
2023/08/03 02:28:46;;;;;;;26.42;15.45;;;18.20;99.90;;;;;;5033440;28;20493;-73
2023/08/03 02:31:12;;;;;;;20.63;16.13;;;18.20;99.90;;;;;;5032529;28;20034;-73
2023/08/03 02:33:38;;;;;;;23.00;15.82;;;18.20;99.90;;;;;;5033248;28;20382;-73
2023/08/03 02:36:04;;;;;;;24.63;16.85;;;18.20;99.90;;;;;;5031444;28;20030;-73
2023/08/03 02:38:30;;;;;;;23.48;15.50;;;18.20;99.90;;;;;;5034330;28;20038;-73
2023/08/03 02:40:57;;;;;;;30.25;18.17;;;18.20;99.90;;;;;;5034073;28;20029;-73
2023/08/03 02:43:26;;;;;;;28.05;18.23;;;18.20;99.90;;;;;;5034246;28;20029;-73
2023/08/03 02:45:52;;;;;;;28.08;19.10;;;18.20;99.90;;;;;;5033332;28;20041;-73
2023/08/03 02:48:18;;;;;;;27.13;19.83;;;18.20;99.90;;;;;;5034205;28;20091;-73
2023/08/03 02:50:44;;;;;;;26.55;17.75;;;18.30;99.90;;;;;;5032306;28;20037;-73
2023/08/03 02:53:10;;;;;;;27.33;20.83;;;18.30;99.90;;;;;;5033141;28;20064;-73
2023/08/03 02:55:36;;;;;;;32.20;20.73;;;18.30;99.90;;;;;;5032678;28;20034;-74
2023/08/03 02:58:02;;;;;;;26.48;18.88;;;18.30;99.90;;;;;;5014981;28;20060;-73
2023/08/03 03:00:28;;;;;;;27.23;21.13;;;18.30;99.90;;;;;;5033202;28;20026;-73
2023/08/03 03:02:54;;;;;;;26.38;19.33;;;18.40;99.90;;;;;;5034147;28;20034;-74
2023/08/03 03:05:21;;;;;;;25.90;19.98;;;18.40;99.90;;;;;;5033496;28;20045;-74
2023/08/03 03:07:47;;;;;;;29.10;19.05;;;18.40;99.90;;;;;;5032637;28;20046;-73
2023/08/03 03:10:13;;;;;;;24.52;17.48;;;18.40;99.90;;;;;;5033734;28;20454;-74
2023/08/03 03:12:40;;;;;;;30.23;20.38;;;18.30;99.90;;;;;;5032615;28;20037;-73
2023/08/03 03:15:07;;;;;;;28.10;22.40;;;18.30;99.90;;;;;;5033676;28;20406;-74
2023/08/03 03:17:33;;;;;;;27.88;21.52;;;18.40;99.90;;;;;;5033346;28;20038;-73
2023/08/03 03:19:59;;;;;;;33.35;24.35;;;18.30;99.90;;;;;;5033257;28;20036;-73
2023/08/03 03:22:25;;;;;;;28.30;25.48;;;18.40;99.90;;;;;;5031968;28;20056;-73
2023/08/03 03:24:51;;;;;;;35.25;27.00;;;18.40;99.90;;;;;;5033489;28;20029;-73
2023/08/03 03:27:17;;;;;;;30.85;27.77;;;18.30;99.90;;;;;;5031708;28;20513;-73
2023/08/03 03:29:43;;;;;;;27.77;23.77;;;18.30;99.90;;;;;;5032558;28;20026;-73
2023/08/03 03:32:09;;;;;;;35.53;28.20;;;18.30;99.90;;;;;;5031363;28;20398;-74
2023/08/03 03:34:35;;;;;;;26.20;23.55;;;18.30;99.90;;;;;;5033206;28;20033;-73
2023/08/03 03:37:01;;;;;;;32.63;28.92;;;18.30;99.90;;;;;;5011812;28;20379;-73
2023/08/03 03:39:29;;;;;;;31.63;28.40;;;18.30;99.90;;;;;;5012295;28;20030;-73
2023/08/03 03:41:55;;;;;;;26.17;19.95;;;18.30;99.90;;;;;;5026426;28;20033;-73
2023/08/03 03:44:21;;;;;;;29.15;18.95;;;18.30;99.90;;;;;;5032051;28;20030;-73
2023/08/03 03:46:47;;;;;;;28.27;18.58;;;18.30;99.90;;;;;;5032432;28;20056;-73
2023/08/03 03:49:13;;;;;;;29.42;18.08;;;18.30;99.90;;;;;;5031657;28;20021;-73
2023/08/03 03:51:39;;;;;;;26.77;19.35;;;18.30;99.90;;;;;;5032478;28;20056;-73
2023/08/03 03:54:05;;;;;;;28.92;17.30;;;18.30;99.90;;;;;;5033007;28;20386;-73
2023/08/03 03:56:31;;;;;;;30.45;21.20;;;18.30;99.90;;;;;;5032674;28;20041;-73
2023/08/03 03:58:57;;;;;;;31.27;23.52;;;18.30;99.90;;;;;;5031886;28;20034;-72
2023/08/03 04:01:24;;;;;;;21.50;17.17;;;18.20;99.90;;;;;;5032142;28;20041;-72
2023/08/03 04:03:50;;;;;;;25.50;18.17;;;18.20;99.90;;;;;;5032526;28;20025;-73
2023/08/03 04:06:16;;;;;;;29.63;17.20;;;18.20;99.90;;;;;;5031328;28;20644;-73
2023/08/03 04:08:42;;;;;;;26.85;18.65;;;18.20;99.90;;;;;;5032426;28;20037;-73
2023/08/03 04:11:08;;;;;;;24.10;16.02;;;18.20;99.90;;;;;;5015007;28;20041;-72
2023/08/03 04:13:34;;;;;;;23.98;13.40;;;18.20;99.90;;;;;;5032617;28;20037;-72
2023/08/03 04:16:00;;;;;;;23.65;12.95;;;18.20;99.90;;;;;;5031839;28;20033;-73
2023/08/03 04:18:27;;;;;;;24.92;15.13;;;18.10;99.90;;;;;;5032187;28;20036;-72
2023/08/03 04:20:54;;;;;;;26.13;17.00;;;18.20;99.90;;;;;;5032255;28;20025;-73
2023/08/03 04:23:20;;;;;;;26.35;15.45;;;18.20;99.90;;;;;;5015097;28;20033;-73
2023/08/03 04:25:46;;;;;;;27.23;17.50;;;18.30;99.90;;;;;;5032152;28;20029;-72
2023/08/03 04:28:12;;;;;;;23.80;15.38;;;18.20;99.90;;;;;;5032366;28;20040;-73
2023/08/03 04:30:38;;;;;;;24.85;14.93;;;18.20;99.90;;;;;;5031502;28;20045;-72
2023/08/03 04:33:04;;;;;;;27.67;13.93;;;18.20;99.90;;;;;;5030969;28;20026;-73
2023/08/03 04:35:30;;;;;;;24.20;16.30;;;18.20;99.90;;;;;;5031963;28;20060;-73
2023/08/03 04:37:56;;;;;;;23.05;17.02;;;18.20;99.90;;;;;;5031006;28;20030;-73
2023/08/03 04:40:22;;;;;;;26.52;16.35;;;18.20;99.90;;;;;;5030844;28;20042;-72
2023/08/03 04:42:48;;;;;;;28.23;18.98;;;18.20;99.90;;;;;;5031204;28;20032;-74
2023/08/03 04:45:15;;;;;;;27.23;18.25;;;18.20;99.90;;;;;;5030375;28;20025;-73
2023/08/03 04:47:41;;;;;;;28.92;18.45;;;18.10;99.90;;;;;;5030782;28;20096;-73
2023/08/03 04:50:07;;;;;;;25.02;19.35;;;18.10;99.90;;;;;;5032330;28;20443;-73
2023/08/03 04:52:33;;;;;;;32.60;22.08;;;18.10;99.90;;;;;;5030855;28;20046;-73
2023/08/03 04:54:59;;;;;;;30.90;19.70;;;18.20;99.90;;;;;;5032243;28;20443;-73
2023/08/03 04:57:25;;;;;;;28.70;18.90;;;18.10;99.90;;;;;;5030390;28;20049;-73
2023/08/03 04:59:52;;;;;;;30.10;19.73;;;18.10;99.90;;;;;;5032168;28;20402;-73
2023/08/03 05:02:18;;;;;;;26.80;16.88;;;18.10;99.90;;;;;;5029757;28;20516;-73
2023/08/03 05:04:44;;;;;;;27.05;20.05;;;18.10;99.90;;;;;;5030952;28;20029;-73
2023/08/03 05:07:10;;;;;;;27.73;23.92;;;18.10;99.90;;;;;;5031612;28;20501;-73
2023/08/03 05:09:36;;;;;;;21.15;18.48;;;18.10;99.90;;;;;;5032127;28;20040;-73
2023/08/03 05:12:02;;;;;;;28.35;20.23;;;18.10;99.90;;;;;;5030630;28;20383;-73
2023/08/03 05:14:28;;;;;;;25.63;19.65;;;18.10;99.90;;;;;;5030165;28;20033;-73
2023/08/03 05:16:54;;;;;;;26.45;17.40;;;18.00;99.90;;;;;;5030753;28;20041;-73
2023/08/03 05:19:21;;;;;;;30.50;17.55;;;18.00;99.90;;;;;;5031860;28;20028;-73
2023/08/03 05:21:47;;;;;;;23.92;18.05;;;18.00;99.90;;;;;;5034216;28;20105;-73
2023/08/03 05:24:13;;;;;;;29.13;18.65;;;18.10;99.90;;;;;;5034731;28;20036;-73
2023/08/03 05:26:39;;;;;;;25.73;18.08;;;18.00;99.90;;;;;;5033021;28;20029;-73
2023/08/03 05:29:05;;;;;;;30.15;16.88;;;18.00;99.90;;;;;;5014823;28;20048;-73
2023/08/03 05:31:31;;;;;;;32.47;18.23;;;18.00;99.90;;;;;;5065701;28;20403;-73
2023/08/03 05:33:57;;;;;;;28.88;17.30;;;18.00;99.90;;;;;;5035613;28;20033;-73
2023/08/03 05:36:23;;;;;;;37.15;22.45;;;18.10;99.90;;;;;;5033982;28;20025;-73
2023/08/03 05:38:53;;;;;;;28.45;24.48;;;18.10;99.90;;;;;;5017517;28;20037;-73
2023/08/03 05:41:21;;;;;;;24.98;21.52;;;18.00;99.90;;;;;;5013706;28;20041;-73
2023/08/03 05:43:47;;;;;;;27.05;18.77;;;18.00;99.90;;;;;;5014392;28;20034;-73
2023/08/03 05:46:14;;;;;;;32.00;17.08;;;18.00;99.90;;;;;;5023238;28;20034;-73
2023/08/03 05:48:40;;;;;;;29.10;17.60;;;18.00;99.90;;;;;;5033918;28;20036;-74
2023/08/03 05:51:06;;;;;;;26.55;18.60;;;18.10;99.90;;;;;;5033880;28;20041;-72
2023/08/03 05:53:32;;;;;;;31.58;24.67;;;18.10;99.90;;;;;;5034090;28;20489;-73
2023/08/03 05:55:58;;;;;;;32.83;24.83;;;18.10;99.90;;;;;;5033854;28;20041;-73
2023/08/03 05:58:24;;;;;;;27.20;21.13;;;18.10;99.90;;;;;;5035039;28;20017;-73
2023/08/03 06:00:51;;;;;;;35.10;23.55;;;18.10;99.90;;;;;;5032794;28;20041;-73
2023/08/03 06:03:17;;;;;;;26.05;19.58;;;18.10;99.90;;;;;;5034001;28;20022;-73
2023/08/03 06:05:45;;;;;;;29.00;19.33;;;18.20;99.90;;;;;;5017212;28;20053;-73
2023/08/03 06:08:20;;;;;;;31.77;28.48;;;18.30;99.90;;;;;;5033853;28;20044;-73
2023/08/03 06:10:51;;;;;;;35.67;24.15;;;18.20;99.90;;;;;;5033164;28;20033;-73
2023/08/03 06:13:24;;;;;;;27.10;24.15;;;18.20;99.90;;;;;;5034595;28;20029;-74
2023/08/03 06:15:50;;;;;;;29.55;17.92;;;18.30;99.90;;;;;;5016039;28;20038;-73
2023/08/03 06:18:20;;;;;;;25.88;20.60;;;18.30;99.90;;;;;;5034738;28;20041;-73
2023/08/03 06:20:50;;;;;;;28.85;17.83;;;18.30;99.90;;;;;;5049791;28;20044;-73
2023/08/03 06:23:28;;;;;;;31.63;18.27;;;18.30;99.90;;;;;;5034769;28;20033;-73
2023/08/03 06:25:55;;;;;;;27.45;20.83;;;18.20;99.90;;;;;;5034397;28;20387;-73
2023/08/03 06:28:22;;;;;;;29.83;20.40;;;18.20;99.90;;;;;;5033081;28;20426;-73
2023/08/03 06:30:49;;;;;;;25.02;19.30;;;18.20;99.90;;;;;;5032718;28;20394;-73
2023/08/03 06:33:17;;;;;;;28.70;23.20;;;18.30;99.90;;;;;;5032992;28;20033;-73
2023/08/03 06:35:47;;;;;;;24.73;15.07;;;18.30;99.90;;;;;;5032848;28;20037;-73
2023/08/03 06:38:16;;;;;;;25.80;14.77;;;18.30;99.90;;;;;;5016919;28;20037;-73
2023/08/03 06:40:42;;;;;;;24.02;14.07;;;18.30;99.90;;;;;;5032941;28;20052;-73
2023/08/03 06:43:09;;;;;;;28.45;14.48;;;18.30;99.90;;;;;;5032710;28;20033;-73
2023/08/03 06:45:35;;;;;;;26.95;18.25;;;18.30;99.90;;;;;;5016073;28;20033;-73
2023/08/03 06:48:01;;;;;;;25.95;15.88;;;18.30;99.90;;;;;;5016415;28;20046;-73
2023/08/03 06:50:31;;;;;;;23.73;13.27;;;18.40;99.90;;;;;;5032510;28;20038;-73
2023/08/03 06:52:57;;;;;;;28.45;12.77;;;18.40;99.90;;;;;;5033066;28;20383;-73
2023/08/03 06:55:24;;;;;;;20.85;13.35;;;18.50;99.90;;;;;;5033792;28;20382;-73
2023/08/03 06:57:50;;;;;;;25.83;18.27;;;18.50;99.90;;;;;;5016021;28;20045;-74
2023/08/03 07:00:16;;;;;;;29.90;16.17;;;18.50;99.90;;;;;;5032078;28;20025;-73
2023/08/03 07:02:42;;;;;;;20.88;15.32;;;18.50;99.90;;;;;;5033806;28;20490;-73
2023/08/03 07:05:08;;;;;;;24.63;15.48;;;18.50;99.90;;;;;;5033907;28;20021;-72
2023/08/03 07:07:35;;;;;;;22.45;14.45;;;18.50;99.90;;;;;;5032624;28;20048;-73
2023/08/03 07:10:01;;;;;;;24.17;14.98;;;18.60;99.90;;;;;;5032759;28;20025;-73
2023/08/03 07:12:27;;;;;;;24.98;14.25;;;18.60;99.90;;;;;;5033149;28;20033;-72
2023/08/03 07:14:53;;;;;;;29.90;16.45;;;18.60;99.90;;;;;;5010984;28;20049;-73
2023/08/03 07:17:20;;;;;;;32.20;15.02;;;18.50;99.90;;;;;;5030886;28;20045;-73
2023/08/03 07:19:50;;;;;;;22.17;16.00;;;18.60;99.90;;;;;;5065638;28;20056;-72
2023/08/03 07:22:17;;;;;;;30.48;13.75;;;18.60;99.90;;;;;;5032326;28;20029;-73
2023/08/03 07:24:43;;;;;;;29.75;17.27;;;18.60;99.90;;;;;;5033617;28;20040;-72
2023/08/03 07:27:09;;;;;;;27.92;17.30;;;18.60;99.90;;;;;;5032760;28;20049;-73
2023/08/03 07:29:35;;;;;;;26.77;17.33;;;18.70;99.90;;;;;;5016113;28;20044;-73
2023/08/03 07:32:02;;;;;;;34.38;17.00;;;18.70;99.90;;;;;;5031546;28;20049;-73
2023/08/03 07:34:28;;;;;;;36.33;17.13;;;18.60;99.90;;;;;;5032306;28;20030;-73
2023/08/03 07:36:54;;;;;;;28.63;18.33;;;18.60;99.90;;;;;;5031635;28;20040;-72
2023/08/03 07:39:20;;;;;;;28.63;22.08;;;18.70;99.90;;;;;;5031950;28;20394;-73
2023/08/03 07:41:47;;;;;;;30.85;25.92;;;18.70;99.90;;;;;;5031501;28;20488;-73
2023/08/03 07:44:14;;;;;;;27.92;16.30;;;18.60;99.90;;;;;;5031340;28;20025;-73
2023/08/03 07:46:40;;;;;;;28.33;19.10;;;18.60;99.90;;;;;;5031225;28;20038;-73
2023/08/03 07:49:06;;;;;;;29.25;19.50;;;18.60;99.90;;;;;;5032924;28;20033;-73
2023/08/03 07:51:32;;;;;;;23.63;17.45;;;18.50;99.90;;;;;;5032990;28;20049;-73
2023/08/03 07:53:58;;;;;;;30.83;22.60;;;18.60;99.90;;;;;;5033065;28;20037;-72
2023/08/03 07:56:24;;;;;;;32.72;29.48;;;18.50;99.90;;;;;;5032310;28;20382;-72
2023/08/03 07:58:51;;;;;;;34.35;30.83;;;18.50;99.90;;;;;;5015361;28;20041;-72
2023/08/03 08:01:17;;;;;;;31.65;28.73;;;18.50;99.90;;;;;;5030840;28;20410;-72
2023/08/03 08:03:43;;;;;;;36.88;33.38;;;18.50;99.90;;;;;;5032623;28;20029;-72
2023/08/03 08:06:12;;;;;;;31.55;28.60;;;18.50;99.90;;;;;;5032407;28;20049;-73
2023/08/03 08:08:38;;;;;;;25.00;19.90;;;18.60;99.90;;;;;;5031401;28;20041;-73
2023/08/03 08:11:04;;;;;;;25.52;16.15;;;18.70;99.90;;;;;;5032251;28;20026;-72
2023/08/03 08:13:31;;;;;;;25.75;20.73;;;18.70;99.90;;;;;;5031514;28;20029;-72
2023/08/03 08:16:01;;;;;;;24.27;14.65;;;18.80;99.90;;;;;;5030653;28;20042;-72
2023/08/03 08:18:28;;;;;;;27.45;20.13;;;18.80;99.90;;;;;;5031373;28;20037;-72
2023/08/03 08:21:14;;;;;;;26.13;19.65;;;18.80;99.90;;;;;;5032353;28;20029;-73
2023/08/03 08:23:40;;;;;;;24.13;15.27;;;18.90;99.90;;;;;;5032241;28;20052;-72
2023/08/03 08:26:10;;;;;;;23.25;17.90;;;18.80;99.90;;;;;;5031954;28;20463;-73
2023/08/03 08:28:36;;;;;;;25.17;16.80;;;18.80;99.90;;;;;;5032436;28;20045;-73
2023/08/03 08:31:02;;;;;;;28.77;20.63;;;18.80;99.90;;;;;;5031808;28;20051;-73
2023/08/03 08:33:28;;;;;;;24.77;19.65;;;18.80;99.90;;;;;;5031314;28;20040;-73
2023/08/03 08:35:54;;;;;;;29.00;26.38;;;18.70;99.90;;;;;;5031986;28;20025;-73
2023/08/03 08:38:20;;;;;;;26.10;23.35;;;18.80;99.90;;;;;;5030919;28;20049;-72
2023/08/03 08:40:47;;;;;;;32.75;29.77;;;18.80;99.90;;;;;;5030796;28;20025;-73
2023/08/03 08:43:13;;;;;;;30.73;27.85;;;18.80;99.90;;;;;;5031175;28;20048;-73
2023/08/03 08:45:39;;;;;;;35.17;32.00;;;18.80;99.90;;;;;;5030663;28;20057;-73
2023/08/03 08:48:05;;;;;;;29.23;23.90;;;18.90;99.90;;;;;;5031048;28;20054;-74
2023/08/03 08:50:32;;;;;;;21.42;18.50;;;18.80;99.90;;;;;;5030503;28;20037;-73
2023/08/03 08:52:58;;;;;;;25.83;22.60;;;18.80;99.90;;;;;;5030744;28;20033;-73
2023/08/03 08:55:29;;;;;;;26.90;23.23;;;18.80;99.90;;;;;;5032756;28;20027;-73
2023/08/03 08:57:55;;;;;;;27.35;22.15;;;18.80;99.90;;;;;;5035198;28;20463;-73
2023/08/03 09:00:24;;;;;;;29.33;26.17;;;18.80;99.90;;;;;;5034465;28;20387;-73
2023/08/03 09:02:59;;;;;;;33.78;30.67;;;18.80;99.90;;;;;;5035266;28;20467;-73
2023/08/03 09:05:26;;;;;;;33.53;29.73;;;18.80;99.90;;;;;;5035799;28;20036;-73
2023/08/03 09:08:05;;;;;;;29.50;25.38;;;18.90;99.90;;;;;;5034585;28;20034;-73
2023/08/03 09:10:31;;;;;;;27.17;23.95;;;18.90;99.90;;;;;;5034503;28;20025;-73
2023/08/03 09:12:58;;;;;;;25.40;22.85;;;19.00;99.90;;;;;;5035029;28;20044;-73
2023/08/03 09:15:37;;;;;;;31.10;27.95;;;19.10;99.90;;;;;;5035183;28;20034;-73
2023/08/03 09:18:04;;;;;;;17.48;15.65;;;19.10;99.90;;;;;;5034520;28;20049;-73
2023/08/03 09:20:31;;;;;;;19.40;15.63;;;19.20;99.90;;;;;;5035389;28;20021;-73
2023/08/03 09:22:57;;;;;;;21.52;18.27;;;19.20;99.90;;;;;;5034312;28;20022;-73
2023/08/03 09:25:23;;;;;;;17.38;15.07;;;19.30;99.90;;;;;;5035830;28;20034;-73
2023/08/03 09:27:52;;;;;;;19.88;16.00;;;19.30;99.90;;;;;;5035597;28;20057;-73
2023/08/03 09:30:18;;;;;;;24.10;17.10;;;19.40;99.90;;;;;;5034849;28;20021;-73
2023/08/03 09:32:45;;;;;;;16.98;15.27;;;19.40;99.90;;;;;;5018063;28;20402;-74
2023/08/03 09:35:17;;;;;;;21.45;19.48;;;19.40;99.90;;;;;;5034086;28;20505;-73
2023/08/03 09:37:43;;;;;;;22.50;20.33;;;19.50;99.90;;;;;;5033574;28;20033;-73
2023/08/03 09:40:10;;;;;;;26.90;24.48;;;19.50;99.90;;;;;;5029079;28;20377;-73
2023/08/03 09:42:37;;;;;;;27.17;24.90;;;19.40;99.90;;;;;;5034077;28;20030;-73
2023/08/03 09:45:04;;;;;;;41.38;38.13;;;19.40;99.90;;;;;;5033860;28;20022;-73
2023/08/03 09:47:31;;;;;;;49.13;45.92;;;19.30;99.90;;;;;;5033804;28;20056;-73
2023/08/03 09:49:57;;;;;;;56.78;52.60;;;19.30;99.90;;;;;;5033889;28;20058;-73
2023/08/03 09:52:26;;;;;;;53.72;49.85;;;19.30;99.90;;;;;;5033490;28;20038;-73
2023/08/03 09:55:00;;;;;;;36.08;33.05;;;19.30;99.90;;;;;;5035569;28;20032;-73
2023/08/03 09:57:28;;;;;;;22.58;20.30;;;19.20;99.90;;;;;;5034821;28;20498;-73
2023/08/03 09:59:59;;;;;;;21.27;19.38;;;19.30;99.90;;;;;;5035121;28;20026;-73
2023/08/03 10:02:29;;;;;;;20.95;18.70;;;19.30;99.90;;;;;;5013238;28;20038;-73
2023/08/03 10:05:00;;;;;;;16.73;15.00;;;19.20;99.90;;;;;;5014270;28;20025;-73
2023/08/03 10:07:31;;;;;;;21.33;19.52;;;19.20;99.90;;;;;;5012728;28;20475;-73
2023/08/03 10:09:57;;;;;;;;;;;19.10;99.90;;;;;;5014377;28;20030;-73
2023/08/03 10:12:34;;;;;;;18.38;16.80;;;19.20;99.90;;;;;;5013768;28;19916;-73
2023/08/03 10:15:00;;;;;;;18.63;16.42;;;19.30;99.90;;;;;;5014030;28;20037;-73
2023/08/03 10:17:27;;;;;;;17.55;15.85;;;19.40;99.90;;;;;;4996631;28;20385;-72
2023/08/03 10:19:54;;;;;;;29.15;26.95;;;19.40;99.90;;;;;;4997154;28;20399;-72
2023/08/03 10:22:20;;;;;;;32.78;30.50;;;19.50;99.90;;;;;;5013313;28;20033;-72
2023/08/03 10:25:15;;;;;;;20.30;18.60;;;19.50;99.90;;;;;;5013848;28;20498;-73
2023/08/03 10:27:41;;;;;;;24.77;23.05;;;19.50;99.90;;;;;;5014996;28;20065;-72
2023/08/03 10:30:07;;;;;;;36.78;34.20;;;19.60;99.90;;;;;;5013390;28;20030;-73
2023/08/03 10:32:33;;;;;;;24.77;23.02;;;19.60;99.90;;;;;;5014505;28;20026;-73
2023/08/03 10:35:49;;;;;;;30.08;28.08;;;19.60;99.90;;;;;;5013145;28;20037;-73
2023/08/03 10:38:19;;;;;;;21.17;19.38;;;19.50;99.90;;;;;;5006570;28;20038;-73
2023/08/03 10:40:45;;;;;;;22.83;20.83;;;19.60;99.90;;;;;;5013222;28;20030;-73
2023/08/03 10:43:11;;;;;;;22.88;20.70;;;19.70;99.90;;;;;;5014687;28;20030;-73
2023/08/03 10:45:37;;;;;;;32.00;29.95;;;19.60;99.90;;;;;;5013856;28;20033;-74
2023/08/03 10:48:30;;;;;;;35.47;33.25;;;19.80;99.90;;;;;;5014502;28;20418;-73
2023/08/03 10:50:57;;;;;;;25.23;23.35;;;19.90;99.90;;;;;;4999336;28;20404;-73
2023/08/03 10:53:23;;;;;;;18.42;16.63;;;19.90;99.90;;;;;;5013189;28;20555;-73
2023/08/03 10:55:50;;;;;;;22.30;20.77;;;19.90;99.90;;;;;;5014028;28;20379;-73
2023/08/03 10:58:16;;;;;;;23.27;21.33;;;20.00;99.90;;;;;;5014398;28;20042;-73
2023/08/03 11:00:43;;;;;;;25.13;23.17;;;20.00;99.90;;;;;;5012316;28;20042;-73
2023/08/03 11:03:09;;;;;;;20.00;18.38;;;20.10;99.90;;;;;;5013043;28;20030;-73
2023/08/03 11:05:36;;;;;;;17.20;15.73;;;20.10;99.90;;;;;;5013349;28;20042;-73
2023/08/03 11:08:02;;;;;;;20.08;18.67;;;20.10;99.90;;;;;;5012796;28;20037;-73
2023/08/03 11:10:28;;;;;;;19.27;17.70;;;20.10;99.90;;;;;;5013772;28;20033;-72
2023/08/03 11:12:55;;;;;;;17.80;16.58;;;20.10;99.90;;;;;;5012912;28;20026;-73
2023/08/03 11:15:21;;;;;;;19.45;18.00;;;20.00;99.90;;;;;;5011965;28;20030;-73
2023/08/03 11:17:51;;;;;;;17.92;16.52;;;20.00;99.90;;;;;;5012945;28;20399;-73
2023/08/03 11:20:17;;;;;;;24.43;22.73;;;20.00;99.90;;;;;;5011652;28;20030;-73
2023/08/03 11:22:43;;;;;;;25.75;24.08;;;19.90;99.90;;;;;;5013688;28;20036;-73
2023/08/03 11:25:09;;;;;;;25.55;23.83;;;19.90;99.90;;;;;;5012436;28;20022;-73
2023/08/03 11:27:39;;;;;;;19.00;17.73;;;19.90;99.90;;;;;;5014238;28;20041;-75
2023/08/03 11:30:06;;;;;;;22.77;21.08;;;20.00;99.90;;;;;;5012196;28;20030;-74
2023/08/03 11:32:32;;;;;;;22.95;21.42;;;20.00;99.90;;;;;;5011821;28;20038;-73
2023/08/03 11:35:05;;;;;;;15.43;14.32;;;20.10;99.90;;;;;;5012620;28;20038;-72
2023/08/03 11:37:36;;;;;;;21.58;20.17;;;20.20;99.90;;;;;;5012206;28;20034;-73
2023/08/03 11:40:06;;;;;;;20.30;19.02;;;20.20;99.90;;;;;;5012417;28;20033;-73
2023/08/03 11:42:39;;;;;;;23.50;21.85;;;20.30;99.90;;;;;;5012166;28;20038;-73
2023/08/03 11:45:06;;;;;;;20.52;18.77;;;20.20;99.90;;;;;;5011793;28;20034;-73
2023/08/03 11:47:43;;;;;;;18.00;16.80;;;20.20;99.90;;;;;;5011570;28;20038;-73
2023/08/03 11:50:09;;;;;;;20.48;19.00;;;20.20;99.90;;;;;;5011895;28;20038;-73
2023/08/03 11:52:36;;;;;;;21.05;19.73;;;20.30;99.90;;;;;;5013197;28;20030;-72
2023/08/03 11:55:02;;;;;;;15.95;14.82;;;20.30;99.90;;;;;;5013293;28;20033;-73
2023/08/03 12:00:14;;;;;;;16.58;15.38;;;20.40;99.90;;;;;;5014648;28;20037;-72
2023/08/03 12:02:41;;;;;;;21.38;19.95;;;20.30;99.90;;;;;;5012679;28;20459;-72
2023/08/03 12:05:08;;;;;;;15.45;14.13;;;20.30;99.90;;;;;;5013034;28;20403;-72
2023/08/03 12:07:34;;;;;;;13.70;12.80;;;20.20;99.90;;;;;;4976205;28;20038;-72
2023/08/03 12:10:00;;;;;;;14.73;13.52;;;20.30;99.90;;;;;;4993332;28;20374;-72
2023/08/03 12:12:26;;;;;;;14.80;13.82;;;20.40;99.90;;;;;;5011779;28;20026;-72
2023/08/03 12:14:52;;;;;;;13.88;12.98;;;20.50;99.90;;;;;;5012989;28;20034;-73
2023/08/03 12:17:18;;;;;;;13.95;12.95;;;20.50;99.90;;;;;;5010479;28;20040;-73
2023/08/03 12:19:44;;;;;;;15.10;14.10;;;20.50;99.90;;;;;;5011696;28;20026;-72
2023/08/03 12:22:11;;;;;;;11.13;10.40;;;20.50;99.90;;;;;;5011524;28;20048;-74
2023/08/03 12:24:37;;;;;;;12.77;11.90;;;20.50;99.90;;;;;;5013182;28;20418;-72
2023/08/03 12:27:04;;;;;;;15.70;14.60;;;20.50;99.90;;;;;;5012460;28;20029;-72
2023/08/03 12:29:30;;;;;;;13.50;12.50;;;20.60;99.90;;;;;;5012462;28;20041;-73
2023/08/03 12:31:56;;;;;;;15.13;14.23;;;20.60;99.90;;;;;;5011683;28;20034;-72